createdAt,value
2019-05-10T00:01:54.267Z,99167.39
2019-05-10T00:05:02.114Z,99164.98
2019-05-10T00:08:09.945Z,99167.73
2019-05-10T00:11:34.839Z,99173.45
2019-05-10T00:14:44.337Z,99177.01
2019-05-10T00:17:34.481Z,99175.12
2019-05-10T00:20:24.602Z,99175.41
2019-05-10T00:23:15.673Z,99171.57
2019-05-10T00:26:05.889Z,99177.83
2019-05-10T00:28:56.873Z,99180.84
2019-05-10T00:31:46.486Z,99183.02
2019-05-10T00:34:36.300Z,99178.13
2019-05-10T00:37:26.495Z,99180.30
2019-05-10T00:40:16.563Z,99178.13
2019-05-10T00:43:07.746Z,99178.13
2019-05-10T00:45:57.291Z,99182.45
2019-05-10T00:48:47.787Z,99178.37
2019-05-10T00:51:38.023Z,99178.64
2019-05-10T00:54:28.248Z,99177.01
2019-05-10T00:57:18.573Z,99180.84
2019-05-10T01:00:09.060Z,99181.09
2019-05-10T01:02:59.089Z,99180.56
2019-05-10T01:05:49.046Z,99182.20
2019-05-10T01:08:38.811Z,99182.20
2019-05-10T01:11:29.111Z,99191.72
2019-05-10T01:14:19.327Z,99196.88
2019-05-10T01:17:09.381Z,99197.41
2019-05-10T01:19:59.634Z,99201.77
2019-05-10T01:22:49.926Z,99204.19
2019-05-10T01:25:40.257Z,99206.91
2019-05-10T01:28:30.348Z,99196.57
2019-05-10T01:31:20.432Z,99206.09
2019-05-10T01:34:10.427Z,99206.09
2019-05-10T01:37:00.654Z,99212.64
2019-05-10T01:39:50.421Z,99219.98
2019-05-10T01:42:40.503Z,99219.75
2019-05-10T01:45:30.593Z,99226.57
2019-05-10T01:48:20.061Z,99228.25
2019-05-10T01:51:09.900Z,99239.39
2019-05-10T01:54:00.117Z,99238.31
2019-05-10T01:56:49.900Z,99245.92
2019-05-10T01:59:39.527Z,99248.09
2019-05-10T02:02:29.558Z,99255.18
2019-05-10T02:05:19.739Z,99256.83
2019-05-10T02:08:09.917Z,99263.63
2019-05-10T02:11:00.121Z,99264.19
2019-05-10T02:13:50.026Z,99264.19
2019-05-10T02:16:39.866Z,99269.09
2019-05-10T02:19:29.979Z,99265.84
2019-05-10T02:22:20.268Z,99264.21
2019-05-10T02:25:11.840Z,99268.28
2019-05-10T02:28:01.705Z,99270.76
2019-05-10T02:30:51.740Z,99272.37
2019-05-10T02:33:41.461Z,99269.12
2019-05-10T02:36:31.430Z,99271.02
2019-05-10T02:39:21.228Z,99269.94
2019-05-10T02:42:11.309Z,99279.98
2019-05-10T02:45:01.380Z,99279.97
2019-05-10T02:47:50.861Z,99282.41
2019-05-10T02:50:40.801Z,99281.61
2019-05-10T02:53:30.302Z,99288.11
2019-05-10T02:56:30.576Z,99290.53
2019-05-10T02:59:15.327Z,99290.53
2019-05-10T03:02:07.668Z,99298.15
2019-05-10T03:05:00.591Z,99301.95
2019-05-10T03:07:55.197Z,99300.05
2019-05-10T03:10:58.960Z,99306.55
2019-05-10T03:13:53.991Z,99315.53
2019-05-10T03:16:48.964Z,99318.00
2019-05-10T03:19:40.498Z,99313.10
2019-05-10T03:22:33.587Z,99326.72
2019-05-10T03:25:23.978Z,99330.78
2019-05-10T03:28:13.957Z,99332.98
2019-05-10T03:31:04.143Z,99330.26
2019-05-10T03:33:57.168Z,99333.23
2019-05-10T03:36:46.089Z,99336.52
2019-05-10T03:39:35.829Z,99342.74
2019-05-10T03:42:26.246Z,99342.20
2019-05-10T03:45:16.526Z,99346.03
2019-05-10T03:48:06.515Z,99352.83
2019-05-10T03:50:55.981Z,99355.27
2019-05-10T03:53:45.676Z,99360.70
2019-05-10T03:56:35.360Z,99355.80
2019-05-10T03:59:24.711Z,99367.78
2019-05-10T04:02:14.806Z,99369.39
2019-05-10T04:05:06.754Z,99372.39
2019-05-10T04:07:56.723Z,99375.11
2019-05-10T04:10:46.432Z,99381.63
2019-05-10T04:13:37.273Z,99382.98
2019-05-10T04:16:27.242Z,99383.81
2019-05-10T04:19:16.999Z,99392.27
2019-05-10T04:22:07.180Z,99392.27
2019-05-10T04:24:56.915Z,99391.45
2019-05-10T04:27:46.830Z,99390.38
2019-05-10T04:30:37.140Z,99393.34
2019-05-10T04:33:27.332Z,99392.27
2019-05-10T04:36:18.365Z,99396.36
2019-05-10T04:39:09.080Z,99402.33
2019-05-10T04:41:58.383Z,99403.44
2019-05-10T04:44:52.914Z,99401.50
2019-05-10T04:47:40.446Z,99414.84
2019-05-10T04:50:31.037Z,99419.44
2019-05-10T04:53:20.818Z,99419.98
2019-05-10T04:56:10.657Z,99420.80
2019-05-10T04:59:00.874Z,99430.31
2019-05-10T05:01:50.861Z,99429.75
2019-05-10T05:04:41.022Z,99434.66
2019-05-10T05:07:30.816Z,99430.33
2019-05-10T05:10:20.838Z,99433.83
2019-05-10T05:13:10.798Z,99438.71
2019-05-10T05:16:00.638Z,99441.68
2019-05-10T05:18:50.497Z,99449.05
2019-05-10T05:21:40.507Z,99453.38
2019-05-10T05:24:30.264Z,99453.38
2019-05-10T05:27:20.523Z,99450.64
2019-05-10T05:30:11.154Z,99456.08
2019-05-10T05:33:00.877Z,99461.72
2019-05-10T05:35:50.994Z,99470.09
2019-05-10T05:38:47.292Z,99467.58
2019-05-10T05:41:32.697Z,99470.79
2019-05-10T05:44:26.047Z,99474.83
2019-05-10T05:47:14.156Z,99469.05
2019-05-10T05:50:04.566Z,99477.17
2019-05-10T05:52:54.791Z,99477.47
2019-05-10T05:55:44.657Z,99484.51
2019-05-10T05:58:38.067Z,99485.08
2019-05-10T06:01:29.547Z,99489.95
2019-05-10T06:04:18.317Z,99500.59
2019-05-10T06:07:08.117Z,99497.55
2019-05-10T06:09:57.897Z,99497.84
2019-05-10T06:12:50.500Z,99500.56
2019-05-10T06:15:39.150Z,99504.34
2019-05-10T06:18:29.070Z,99502.39
2019-05-10T06:21:25.187Z,99506.69
2019-05-10T06:24:13.486Z,99505.78
2019-05-10T06:27:03.373Z,99501.66
2019-05-10T06:29:54.224Z,99511.98
2019-05-10T06:32:44.419Z,99517.95
2019-05-10T06:35:34.401Z,99525.27
2019-05-10T06:38:24.119Z,99522.48
2019-05-10T06:41:17.106Z,99531.38
2019-05-10T06:44:05.880Z,99532.65
2019-05-10T06:46:55.801Z,99537.17
2019-05-10T06:49:50.752Z,99535.95
2019-05-10T06:52:37.368Z,99528.11
2019-05-10T06:55:29.437Z,99535.02
2019-05-10T06:58:19.273Z,99534.91
2019-05-10T07:01:09.272Z,99540.83
2019-05-10T07:03:59.223Z,99540.02
2019-05-10T07:06:49.090Z,99534.71
2019-05-10T07:10:01.768Z,99527.55
2019-05-10T07:12:30.861Z,99536.53
2019-05-10T07:15:20.799Z,99534.31
2019-05-10T07:18:10.775Z,99540.60
2019-05-10T07:21:06.512Z,99535.14
2019-05-10T07:23:52.295Z,99536.02
2019-05-10T07:26:42.194Z,99538.20
2019-05-10T07:29:41.884Z,99533.83
2019-05-10T07:32:24.602Z,99532.92
2019-05-10T07:35:15.123Z,99533.92
2019-05-10T07:38:05.325Z,99533.55
2019-05-10T07:40:55.424Z,99538.82
2019-05-10T07:43:48.012Z,99549.14
2019-05-10T07:46:39.870Z,99534.08
2019-05-10T07:49:30.376Z,99536.98
2019-05-10T07:52:18.587Z,99542.83
2019-05-10T07:55:10.565Z,99548.50
2019-05-10T07:58:04.908Z,99555.30
2019-05-10T08:00:55.802Z,99551.38
2019-05-10T08:03:48.131Z,99557.98
2019-05-10T08:06:43.433Z,99555.81
2019-05-10T08:09:31.519Z,99550.56
2019-05-10T08:12:19.681Z,99492.30
2019-05-10T08:15:10.299Z,99558.17
2019-05-10T08:18:00.179Z,99552.09
2019-05-10T08:20:56.642Z,99555.88
2019-05-10T08:23:43.768Z,99557.39
2019-05-10T08:26:33.209Z,99556.59
2019-05-10T08:29:23.303Z,99561.16
2019-05-10T08:32:13.050Z,99551.63
2019-05-10T08:35:05.386Z,99558.64
2019-05-10T08:37:55.897Z,99566.45
2019-05-10T08:40:46.168Z,99589.22
2019-05-10T08:43:38.872Z,99579.35
2019-05-10T08:46:37.040Z,99585.39
2019-05-10T08:49:21.988Z,99596.03
2019-05-10T08:52:12.183Z,99600.05
2019-05-10T08:55:02.819Z,99597.16
2019-05-10T08:57:53.337Z,99600.76
2019-05-10T09:00:54.236Z,99599.31
2019-05-10T09:03:34.283Z,99603.61
2019-05-10T09:06:24.467Z,99609.52
2019-05-10T09:09:14.874Z,99601.04
2019-05-10T09:12:08.937Z,99604.03
2019-05-10T09:15:05.675Z,99604.78
2019-05-10T09:17:48.804Z,99601.88
2019-05-10T09:20:38.575Z,99608.58
2019-05-10T09:23:28.318Z,99615.61
2019-05-10T09:26:18.251Z,99612.81
2019-05-10T09:29:08.186Z,99620.48
2019-05-10T09:32:01.045Z,99628.48
2019-05-10T09:34:49.394Z,99631.59
2019-05-10T09:37:38.845Z,99636.21
2019-05-10T09:40:28.483Z,99631.95
2019-05-10T09:43:21.334Z,99631.72
2019-05-10T09:46:11.471Z,99640.69
2019-05-10T09:49:09.929Z,99637.88
2019-05-10T09:51:55.041Z,99639.05
2019-05-10T09:54:49.210Z,99639.81
2019-05-10T09:57:37.972Z,99641.01
2019-05-10T10:00:37.958Z,99646.67
2019-05-10T10:03:30.091Z,99648.69
2019-05-10T10:06:19.704Z,99654.30
2019-05-10T10:09:11.180Z,99658.78
2019-05-10T10:12:03.248Z,99657.37
2019-05-10T10:14:52.752Z,99662.73
2019-05-10T10:17:43.050Z,99664.56
2019-05-10T10:20:35.917Z,99678.50
2019-05-10T10:23:30.634Z,99677.02
2019-05-10T10:26:22.348Z,99675.99
2019-05-10T10:29:10.104Z,99684.54
2019-05-10T10:32:00.000Z,99682.02
2019-05-10T10:34:54.379Z,99681.34
2019-05-10T10:37:41.936Z,99677.12
2019-05-10T10:40:35.488Z,99678.63
2019-05-10T10:43:23.870Z,99678.22
2019-05-10T10:46:16.675Z,99678.12
2019-05-10T10:49:05.754Z,99688.78
2019-05-10T10:51:57.383Z,99693.92
2019-05-10T10:54:48.621Z,99698.88
2019-05-10T10:57:38.760Z,99698.81
2019-05-10T11:00:39.018Z,99697.41
2019-05-10T11:03:30.322Z,99708.98
2019-05-10T11:06:19.890Z,99706.60
2019-05-10T11:09:10.255Z,99706.50
2019-05-10T11:12:00.971Z,99711.47
2019-05-10T11:14:51.140Z,99711.72
2019-05-10T11:17:41.440Z,99706.08
2019-05-10T11:20:32.032Z,99703.67
2019-05-10T11:23:26.145Z,99706.44
2019-05-10T11:26:13.669Z,99707.45
2019-05-10T11:29:03.247Z,99716.40
2019-05-10T11:32:11.165Z,99709.66
2019-05-10T11:34:44.120Z,99715.47
2019-05-10T11:37:36.339Z,99722.73
2019-05-10T11:40:30.900Z,99722.16
2019-05-10T11:43:22.651Z,99717.03
2019-05-10T11:46:08.777Z,99720.77
2019-05-10T11:48:58.617Z,99721.91
2019-05-10T11:51:54.823Z,99729.66
2019-05-10T11:54:41.701Z,99731.09
2019-05-10T11:57:32.884Z,99734.41
2019-05-10T12:00:31.433Z,99736.98
2019-05-10T12:03:19.808Z,99734.91
2019-05-10T12:06:09.193Z,99737.84
2019-05-10T12:09:02.139Z,99737.17
2019-05-10T12:14:46.132Z,99734.23
2019-05-10T12:17:34.723Z,99737.11
2019-05-10T12:20:38.990Z,99735.50
2019-05-10T12:23:22.627Z,99731.67
2019-05-10T12:26:27.366Z,99741.47
2019-05-10T12:27:13.011Z,99731.55
2019-05-10T12:29:11.525Z,99730.09
2019-05-10T12:31:53.369Z,99734.63
2019-05-10T12:34:46.063Z,99724.66
2019-05-10T12:37:39.416Z,99724.18
2019-05-10T12:40:27.147Z,99732.93
2019-05-10T12:43:17.522Z,99728.06
2019-05-10T12:46:07.304Z,99731.23
2019-05-10T12:48:57.341Z,99736.89
2019-05-10T12:51:47.460Z,99728.45
2019-05-10T12:54:37.146Z,99731.44
2019-05-10T12:57:26.902Z,99739.52
2019-05-10T13:00:19.333Z,99753.66
2019-05-10T13:03:12.889Z,99751.22
2019-05-10T13:06:00.375Z,99765.80
2019-05-10T13:08:50.397Z,99784.16
2019-05-10T13:11:40.786Z,99791.56
2019-05-10T13:14:31.128Z,99800.80
2019-05-10T13:17:22.265Z,99806.02
2019-05-10T13:20:12.613Z,99805.77
2019-05-10T13:23:02.263Z,99810.21
2019-05-10T13:25:52.351Z,99816.25
2019-05-10T13:28:42.265Z,99811.17
2019-05-10T13:31:32.145Z,99826.41
2019-05-10T13:34:24.466Z,99823.28
2019-05-10T13:37:23.160Z,99816.57
2019-05-10T13:40:08.074Z,99831.39
2019-05-10T13:42:57.814Z,99834.19
2019-05-10T13:45:47.993Z,99832.33
2019-05-10T13:48:38.310Z,99829.08
2019-05-10T13:51:28.503Z,99830.13
2019-05-10T13:54:18.212Z,99831.44
2019-05-10T13:57:08.254Z,99834.36
2019-05-10T14:00:01.842Z,99830.23
2019-05-10T14:02:49.830Z,99830.45
2019-05-10T14:05:40.162Z,99827.38
2019-05-10T14:08:30.797Z,99831.92
2019-05-10T14:11:20.640Z,99833.17
2019-05-10T14:14:14.438Z,99839.96
2019-05-10T14:17:02.471Z,99833.66
2019-05-10T14:19:52.744Z,99846.75
2019-05-10T14:22:48.371Z,99847.58
2019-05-10T14:25:36.768Z,99847.30
2019-05-10T14:28:26.947Z,99844.28
2019-05-10T14:31:17.015Z,99848.91
2019-05-10T14:34:15.762Z,99843.70
2019-05-10T14:36:59.015Z,99854.92
2019-05-10T14:39:48.775Z,99851.38
2019-05-10T14:42:38.763Z,99852.50
2019-05-10T14:45:28.906Z,99852.22
2019-05-10T14:48:28.089Z,99846.21
2019-05-10T14:51:13.600Z,99851.09
2019-05-10T14:54:06.588Z,99854.89
2019-05-10T14:56:55.253Z,99852.38
2019-05-10T14:59:46.685Z,99849.92
2019-05-10T15:02:36.495Z,99841.39
2019-05-10T15:05:25.805Z,99843.16
2019-05-10T15:08:15.588Z,99835.37
2019-05-10T15:11:06.110Z,99841.44
2019-05-10T15:13:56.392Z,99848.63
2019-05-10T15:16:46.218Z,99848.25
2019-05-10T15:19:35.990Z,99851.17
2019-05-10T15:22:26.037Z,99853.84
2019-05-10T15:25:16.207Z,99842.72
2019-05-10T15:28:06.123Z,99849.10
2019-05-10T15:30:55.841Z,99847.63
2019-05-10T15:33:45.884Z,99846.23
2019-05-10T15:36:35.883Z,99847.33
2019-05-10T15:39:28.735Z,99846.44
2019-05-10T15:42:17.408Z,99846.38
2019-05-10T15:45:11.998Z,99850.11
2019-05-10T15:48:02.926Z,99840.21
2019-05-10T15:50:51.616Z,99847.91
2019-05-10T15:53:41.191Z,99845.69
2019-05-10T15:56:35.695Z,99839.97
2019-05-10T15:59:22.858Z,99841.64
2019-05-10T16:02:14.605Z,99839.45
2019-05-10T16:05:22.969Z,99846.30
2019-05-10T16:07:56.554Z,99849.28
2019-05-10T16:10:46.320Z,99847.60
2019-05-10T16:13:37.760Z,99847.77
2019-05-10T16:16:37.259Z,99853.77
2019-05-10T16:19:22.223Z,99852.59
2019-05-10T16:22:12.625Z,99862.15
2019-05-10T16:25:02.962Z,99862.41
2019-05-10T16:27:52.901Z,99852.48
2019-05-10T16:30:42.749Z,99857.92
2019-05-10T16:33:32.867Z,99864.47
2019-05-10T16:36:27.752Z,99875.19
2019-05-10T16:39:14.771Z,99873.06
2019-05-10T16:42:04.803Z,99872.31
2019-05-10T16:44:54.566Z,99880.58
2019-05-10T16:47:45.046Z,99881.77
2019-05-10T16:50:35.367Z,99887.11
2019-05-10T16:53:24.823Z,99891.59
2019-05-10T16:56:19.058Z,99897.95
2019-05-10T16:59:06.887Z,99893.84
2019-05-10T17:02:03.376Z,99891.63
2019-05-10T17:04:48.892Z,99898.71
2019-05-10T17:07:38.598Z,99906.55
2019-05-10T17:10:32.919Z,99916.14
2019-05-10T17:13:20.382Z,99920.01
2019-05-10T17:16:11.731Z,99931.57
2019-05-10T17:19:02.271Z,99927.04
2019-05-10T17:21:52.035Z,99937.86
2019-05-10T17:24:41.659Z,99941.81
2019-05-10T17:27:32.368Z,99945.77
2019-05-10T17:30:27.759Z,99951.08
2019-05-10T17:33:15.583Z,99957.95
2019-05-10T17:36:08.438Z,99959.97
2019-05-10T17:38:56.878Z,99960.02
2019-05-10T17:41:46.668Z,99961.70
2019-05-10T17:44:37.142Z,99959.58
2019-05-10T17:47:27.106Z,99960.20
2019-05-10T17:50:19.490Z,99961.09
2019-05-10T17:53:09.718Z,99963.63
2019-05-10T17:56:02.787Z,99972.14
2019-05-10T17:58:51.150Z,99984.78
2019-05-10T18:01:41.117Z,99985.44
2019-05-10T18:04:30.698Z,99981.97
2019-05-10T18:07:20.629Z,99981.22
2019-05-10T18:10:10.995Z,99982.34
2019-05-10T18:13:03.434Z,99988.95
2019-05-10T18:15:53.428Z,99993.91
2019-05-10T18:18:47.195Z,99999.14
2019-05-10T18:21:35.490Z,99997.55
2019-05-10T18:24:24.598Z,99999.76
2019-05-10T18:27:14.999Z,99998.95
2019-05-10T18:30:05.672Z,100003.63
2019-05-10T18:32:54.973Z,99993.80
2019-05-10T18:35:47.433Z,99984.55
2019-05-10T18:38:39.338Z,99994.10
2019-05-10T18:41:29.537Z,99995.76
2019-05-10T18:44:19.730Z,99996.05
2019-05-10T18:47:09.946Z,99995.50
2019-05-10T18:50:00.131Z,100001.77
2019-05-10T18:52:49.879Z,100003.95
2019-05-10T18:55:41.166Z,100012.66
2019-05-10T18:58:31.619Z,100026.02
2019-05-10T19:01:21.935Z,100031.73
2019-05-10T19:04:14.182Z,100034.19
2019-05-10T19:07:09.866Z,100033.09
2019-05-10T19:09:54.980Z,100042.59
2019-05-10T19:12:45.060Z,100055.33
2019-05-10T19:15:34.934Z,100056.69
2019-05-10T19:18:25.485Z,100058.86
2019-05-10T19:21:15.698Z,100056.92
2019-05-10T19:24:05.864Z,100063.98
2019-05-10T19:26:55.772Z,100069.38
2019-05-10T19:29:47.852Z,100067.16
2019-05-10T19:32:37.970Z,100064.67
2019-05-10T19:35:29.922Z,100064.09
2019-05-10T19:38:19.332Z,100069.76
2019-05-10T19:41:09.592Z,100068.64
2019-05-10T19:44:02.473Z,100075.67
2019-05-10T19:46:51.056Z,100077.27
2019-05-10T19:49:45.708Z,100079.69
2019-05-10T19:52:32.561Z,100080.16
2019-05-10T19:55:22.652Z,100080.63
2019-05-10T19:58:12.802Z,100075.67
2019-05-10T20:01:02.910Z,100079.98
2019-05-10T20:03:53.256Z,100084.84
2019-05-10T20:06:43.173Z,100082.36
2019-05-10T20:09:33.323Z,100091.30
2019-05-10T20:12:23.212Z,100091.24
2019-05-10T20:15:13.194Z,100093.08
2019-05-10T20:18:03.976Z,100090.34
2019-05-10T20:20:53.968Z,100089.52
2019-05-10T20:23:43.956Z,100096.55
2019-05-10T20:26:34.169Z,100097.87
2019-05-10T20:29:24.676Z,100092.42
2019-05-10T20:32:14.761Z,100091.83
2019-05-10T20:35:04.939Z,100095.02
2019-05-10T20:38:01.981Z,100092.78
2019-05-10T20:40:46.804Z,100087.32
2019-05-10T20:43:36.690Z,100097.03
2019-05-10T20:46:26.498Z,100097.80
2019-05-10T20:49:16.705Z,100103.46
2019-05-10T20:52:07.155Z,100095.22
2019-05-10T20:54:57.985Z,100093.83
2019-05-10T20:57:48.295Z,100102.73
2019-05-10T21:00:38.689Z,100084.83
2019-05-10T21:03:28.712Z,100086.45
2019-05-10T21:06:18.630Z,100084.50
2019-05-10T21:09:08.739Z,100083.14
2019-05-10T21:11:58.727Z,100081.02
2019-05-10T21:14:48.730Z,100076.39
2019-05-10T21:17:38.395Z,100074.80
2019-05-10T21:20:28.029Z,100070.16
2019-05-10T21:23:18.402Z,100075.30
2019-05-10T21:26:08.529Z,100076.05
2019-05-10T21:28:58.327Z,100076.78
2019-05-10T21:31:48.717Z,100078.38
2019-05-10T21:34:38.804Z,100079.16
2019-05-10T21:37:28.897Z,100080.22
2019-05-10T21:40:18.555Z,100087.01
2019-05-10T21:43:08.903Z,100093.00
2019-05-10T21:45:58.871Z,100092.73
2019-05-10T21:48:48.727Z,100095.75
2019-05-10T21:51:39.303Z,100105.25
2019-05-10T21:54:29.367Z,100110.38
2019-05-10T21:57:19.302Z,100112.78
2019-05-10T22:00:09.756Z,100118.44
2019-05-10T22:03:01.425Z,100118.67
2019-05-10T22:05:51.648Z,100122.70
2019-05-10T22:08:49.519Z,100119.13
2019-05-10T22:11:32.722Z,100128.02
2019-05-10T22:14:22.764Z,100130.42
2019-05-10T22:17:12.956Z,100121.98
2019-05-10T22:20:02.735Z,100122.73
2019-05-10T22:22:52.464Z,100123.52
2019-05-10T22:25:42.506Z,100123.75
2019-05-10T22:28:32.217Z,100124.80
2019-05-10T22:31:21.961Z,100128.30
2019-05-10T22:34:11.741Z,100132.07
2019-05-10T22:37:01.316Z,100135.87
2019-05-10T22:39:51.445Z,100134.74
2019-05-10T22:42:41.215Z,100143.39
2019-05-10T22:45:31.524Z,100146.91
2019-05-10T22:48:21.596Z,100141.48
2019-05-10T22:51:11.866Z,100144.71
2019-05-10T22:54:01.929Z,100140.91
2019-05-10T22:56:51.622Z,100141.70
2019-05-10T22:59:41.438Z,100129.80
2019-05-10T23:02:31.832Z,100131.98
2019-05-10T23:05:22.018Z,100129.28
2019-05-10T23:08:12.108Z,100120.09
2019-05-10T23:11:02.666Z,100115.41
2019-05-10T23:13:52.708Z,100122.48
2019-05-10T23:16:43.477Z,100119.52
2019-05-10T23:19:32.974Z,100130.63
2019-05-10T23:22:22.494Z,100131.23
2019-05-10T23:25:12.982Z,100142.65
2019-05-10T23:28:02.627Z,100136.40
2019-05-10T23:30:52.900Z,100141.30
2019-05-10T23:33:43.029Z,100150.00
2019-05-10T23:36:32.697Z,100155.95
2019-05-10T23:39:22.969Z,100158.41
2019-05-10T23:42:12.783Z,100154.28
2019-05-10T23:45:02.382Z,100147.20
2019-05-10T23:47:52.524Z,100128.52
2019-05-10T23:50:42.472Z,100107.39
2019-05-10T23:53:32.405Z,100098.13
2019-05-10T23:56:23.193Z,100112.81
2019-05-10T23:59:13.096Z,100107.66
